Impacts METAR Board INFO
IDs:

KDTW - Detroit Metro/Wayne, MI, US

Updated at: 2255 UTC 21 Feb 2018
Potential Impact None Slight Moderate High
Time21/10Z 21/11Z 21/12Z 21/13Z 21/14Z 21/15Z 21/16Z 21/17Z 21/18Z 21/19Z 21/20Z 21/21Z 21/22Z
VIS 7 7 10 10 10 10 10 10 10 10
CIG 8 30 15 10 10 16 20 25 30 30
CoverOVCOVCOVCOVCOVCOVCOVCOVCOVCOVC
FltCatIFRMVFRMVFRMVFRMVFRMVFRMVFRMVFRMVFRMVFR
WX-RA-RA-RA-RA------------
WDir32034034033034035034034035010
WSpd 12 9 14 12 9 7 6 8 6 9
WGst -- -- -- -- -- -- -- -- -- --
Raw hourly METARs



KDTW 211253Z 32012KT 7SM -RA BKN008 OVC020 04/03 A3028 RMK AO2 PRESRR SLP255 P0005 T00440028 $
KDTW 211400Z 34009KT 7SM -RA SCT014 BKN030 OVC045 04/02 A3033 RMK AO2 P0001 T00390022 $
KDTW 211453Z 34014KT 10SM -RA BKN015 OVC050 04/02 A3036 RMK AO2 SLP284 P0004 60012 T00390017 51049 $
KDTW 211553Z 33012KT 10SM -RA OVC010 03/02 A3042 RMK AO2 SLP303 P0000 T00330017 $
KDTW 211653Z 34009KT 10SM OVC010 03/01 A3045 RMK AO2 RAE08 SLP315 P0000 T00330011 $
KDTW 211753Z 35007KT 10SM OVC016 04/01 A3047 RMK AO2 SLP322 60012 T00390011 10056 20033 51036 $
KDTW 211853Z 34006KT 10SM OVC020 05/01 A3048 RMK AO2 SLP326 T00500006 $
KDTW 211953Z 34008KT 10SM OVC025 05/00 A3050 RMK AO2 SLP332 T00500000 $
KDTW 212053Z 35006KT 10SM OVC030 05/00 A3053 RMK AO2 SLP341 T00500000 53019 $
KDTW 212153Z 01009KT 10SM BKN030 OVC130 06/00 A3053 RMK AO2 SLP343 T00560000 $